Terminal Aerodrome Forecast
Issued by NWS

Home | Current Version | Previous Version | Graphics & Text | Print | Product List | Glossary On
Versions: 1 2 3 4 5 6 7 8 9 10 11 12 13 14 15 16 17 18 19 20 21 22 23 24 25
000
FTUS43 KGRB 190500
TAFCWA
TAF
KCWA 190528Z 1906/2006 12005KT 5SM BR SCT050 SCT200
      TEMPO 1908/1912 2SM BR
     FM191300 19010G16KT P6SM SCT100 BKN250 WS015/22030KT
     FM191600 18014G22KT P6SM SCT100 BKN200
     FM192200 19011KT P6SM BKN100 BKN250
     FM200200 18006KT P6SM VCSH BKN070
      AMD LTD TO CLD VIS AND WIND TIL 191200=

USA.gov is the U.S. government's official web portal to all federal, state and local government web resources and services.